sensor_id;sensor_type;location;lat;lon;timestamp;temperature;humidity
54898;DHT22;40800;52.704;6.398;2023-11-19T00:01:45;16.90;99.90
54898;DHT22;40800;52.704;6.398;2023-11-19T00:04:12;18.00;99.90
54898;DHT22;40800;52.704;6.398;2023-11-19T00:06:38;17.00;99.90
54898;DHT22;40800;52.704;6.398;2023-11-19T00:09:04;15.20;99.90
54898;DHT22;40800;52.704;6.398;2023-11-19T00:11:30;15.50;99.90
54898;DHT22;40800;52.704;6.398;2023-11-19T00:13:55;15.30;99.90
54898;DHT22;40800;52.704;6.398;2023-11-19T00:16:21;17.50;99.90
54898;DHT22;40800;52.704;6.398;2023-11-19T00:18:46;15.80;99.90
54898;DHT22;40800;52.704;6.398;2023-11-19T00:21:12;14.70;99.90
54898;DHT22;40800;52.704;6.398;2023-11-19T00:23:37;18.00;99.90
54898;DHT22;40800;52.704;6.398;2023-11-19T00:26:03;14.80;99.90
54898;DHT22;40800;52.704;6.398;2023-11-19T00:28:32;17.70;99.90
54898;DHT22;40800;52.704;6.398;2023-11-19T00:30:58;15.80;99.90
54898;DHT22;40800;52.704;6.398;2023-11-19T00:33:23;15.60;99.90
54898;DHT22;40800;52.704;6.398;2023-11-19T00:35:49;17.80;99.90
54898;DHT22;40800;52.704;6.398;2023-11-19T00:38:15;17.20;99.90
54898;DHT22;40800;52.704;6.398;2023-11-19T00:40:41;15.20;99.90
54898;DHT22;40800;52.704;6.398;2023-11-19T00:43:07;15.10;99.90
54898;DHT22;40800;52.704;6.398;2023-11-19T00:45:32;15.30;99.90
54898;DHT22;40800;52.704;6.398;2023-11-19T00:47:58;15.40;99.90
54898;DHT22;40800;52.704;6.398;2023-11-19T00:50:25;17.70;99.90
54898;DHT22;40800;52.704;6.398;2023-11-19T00:52:50;17.90;99.90
54898;DHT22;40800;52.704;6.398;2023-11-19T00:55:16;18.30;99.90
54898;DHT22;40800;52.704;6.398;2023-11-19T00:57:42;15.80;99.90
54898;DHT22;40800;52.704;6.398;2023-11-19T01:00:08;15.10;99.90
54898;DHT22;40800;52.704;6.398;2023-11-19T01:02:43;15.30;99.90
54898;DHT22;40800;52.704;6.398;2023-11-19T01:05:09;17.60;99.90
54898;DHT22;40800;52.704;6.398;2023-11-19T01:07:35;17.60;99.90
54898;DHT22;40800;52.704;6.398;2023-11-19T01:10:00;16.90;99.90
54898;DHT22;40800;52.704;6.398;2023-11-19T01:12:26;16.80;99.90
54898;DHT22;40800;52.704;6.398;2023-11-19T01:14:51;17.50;99.90
54898;DHT22;40800;52.704;6.398;2023-11-19T01:17:17;17.80;99.90
54898;DHT22;40800;52.704;6.398;2023-11-19T01:19:42;18.20;99.90
54898;DHT22;40800;52.704;6.398;2023-11-19T01:22:08;17.60;99.90
54898;DHT22;40800;52.704;6.398;2023-11-19T01:24:33;15.40;99.90
54898;DHT22;40800;52.704;6.398;2023-11-19T01:26:59;17.60;99.90
54898;DHT22;40800;52.704;6.398;2023-11-19T01:29:31;15.60;99.90
54898;DHT22;40800;52.704;6.398;2023-11-19T01:31:57;16.40;99.90
54898;DHT22;40800;52.704;6.398;2023-11-19T01:34:22;15.60;99.90
54898;DHT22;40800;52.704;6.398;2023-11-19T01:36:48;17.90;99.90
54898;DHT22;40800;52.704;6.398;2023-11-19T01:39:14;15.30;99.90
54898;DHT22;40800;52.704;6.398;2023-11-19T01:41:41;17.70;99.90
54898;DHT22;40800;52.704;6.398;2023-11-19T01:44:07;17.30;99.90
54898;DHT22;40800;52.704;6.398;2023-11-19T01:46:33;16.50;99.90
54898;DHT22;40800;52.704;6.398;2023-11-19T01:48:58;15.30;99.90
54898;DHT22;40800;52.704;6.398;2023-11-19T01:51:24;18.40;99.90
54898;DHT22;40800;52.704;6.398;2023-11-19T01:53:50;17.80;99.90
54898;DHT22;40800;52.704;6.398;2023-11-19T01:56:15;17.30;99.90
54898;DHT22;40800;52.704;6.398;2023-11-19T01:58:41;16.90;99.90
54898;DHT22;40800;52.704;6.398;2023-11-19T02:01:08;17.10;99.90
54898;DHT22;40800;52.704;6.398;2023-11-19T02:03:34;16.60;99.90
54898;DHT22;40800;52.704;6.398;2023-11-19T02:06:00;15.40;99.90
54898;DHT22;40800;52.704;6.398;2023-11-19T02:08:25;17.60;99.90
54898;DHT22;40800;52.704;6.398;2023-11-19T02:10:51;17.70;99.90
54898;DHT22;40800;52.704;6.398;2023-11-19T02:13:18;16.80;99.90
54898;DHT22;40800;52.704;6.398;2023-11-19T02:15:43;17.50;99.90
54898;DHT22;40800;52.704;6.398;2023-11-19T02:18:19;16.50;99.90
54898;DHT22;40800;52.704;6.398;2023-11-19T02:20:45;15.70;99.90
54898;DHT22;40800;52.704;6.398;2023-11-19T02:23:11;16.90;99.90
54898;DHT22;40800;52.704;6.398;2023-11-19T02:25:36;17.00;99.90
54898;DHT22;40800;52.704;6.398;2023-11-19T02:28:03;16.60;99.90
54898;DHT22;40800;52.704;6.398;2023-11-19T02:30:28;15.80;99.90
54898;DHT22;40800;52.704;6.398;2023-11-19T02:32:55;17.40;99.90
54898;DHT22;40800;52.704;6.398;2023-11-19T02:35:24;15.80;99.90
54898;DHT22;40800;52.704;6.398;2023-11-19T02:37:51;16.50;99.90
54898;DHT22;40800;52.704;6.398;2023-11-19T02:40:16;15.50;99.90
54898;DHT22;40800;52.704;6.398;2023-11-19T02:42:42;16.00;99.90
54898;DHT22;40800;52.704;6.398;2023-11-19T02:45:08;17.20;99.90
54898;DHT22;40800;52.704;6.398;2023-11-19T02:47:39;16.30;99.90
54898;DHT22;40800;52.704;6.398;2023-11-19T02:50:05;17.00;99.90
54898;DHT22;40800;52.704;6.398;2023-11-19T02:52:38;16.80;99.90
54898;DHT22;40800;52.704;6.398;2023-11-19T02:55:04;15.50;99.90
54898;DHT22;40800;52.704;6.398;2023-11-19T02:57:34;15.70;99.90
54898;DHT22;40800;52.704;6.398;2023-11-19T03:00:00;15.60;99.90
54898;DHT22;40800;52.704;6.398;2023-11-19T03:02:25;15.60;99.90
54898;DHT22;40800;52.704;6.398;2023-11-19T03:04:59;16.80;99.90
54898;DHT22;40800;52.704;6.398;2023-11-19T03:07:25;15.50;99.90
54898;DHT22;40800;52.704;6.398;2023-11-19T03:09:50;16.70;99.90
54898;DHT22;40800;52.704;6.398;2023-11-19T03:12:16;16.90;99.90
54898;DHT22;40800;52.704;6.398;2023-11-19T03:14:41;16.90;99.90
54898;DHT22;40800;52.704;6.398;2023-11-19T03:17:07;15.60;99.90
54898;DHT22;40800;52.704;6.398;2023-11-19T03:19:35;16.80;99.90
54898;DHT22;40800;52.704;6.398;2023-11-19T03:22:01;16.80;99.90
54898;DHT22;40800;52.704;6.398;2023-11-19T03:24:27;15.70;99.90
54898;DHT22;40800;52.704;6.398;2023-11-19T03:26:52;16.80;99.90
54898;DHT22;40800;52.704;6.398;2023-11-19T03:29:18;15.80;99.90
54898;DHT22;40800;52.704;6.398;2023-11-19T03:31:43;15.90;99.90
54898;DHT22;40800;52.704;6.398;2023-11-19T03:34:10;15.80;99.90
54898;DHT22;40800;52.704;6.398;2023-11-19T03:36:35;16.80;99.90
54898;DHT22;40800;52.704;6.398;2023-11-19T03:39:01;16.70;99.90
54898;DHT22;40800;52.704;6.398;2023-11-19T03:41:26;15.80;99.90
54898;DHT22;40800;52.704;6.398;2023-11-19T03:43:52;15.80;99.90
54898;DHT22;40800;52.704;6.398;2023-11-19T03:46:18;16.00;99.90
54898;DHT22;40800;52.704;6.398;2023-11-19T03:48:44;16.90;99.90
54898;DHT22;40800;52.704;6.398;2023-11-19T03:51:10;15.70;99.90
54898;DHT22;40800;52.704;6.398;2023-11-19T03:53:37;15.90;99.90
54898;DHT22;40800;52.704;6.398;2023-11-19T03:56:02;16.20;99.90
54898;DHT22;40800;52.704;6.398;2023-11-19T03:58:28;15.80;99.90
54898;DHT22;40800;52.704;6.398;2023-11-19T04:00:54;16.30;99.90
54898;DHT22;40800;52.704;6.398;2023-11-19T04:03:20;15.70;99.90
54898;DHT22;40800;52.704;6.398;2023-11-19T04:05:45;15.70;99.90
54898;DHT22;40800;52.704;6.398;2023-11-19T04:08:11;16.20;99.90
54898;DHT22;40800;52.704;6.398;2023-11-19T04:10:36;15.80;99.90
54898;DHT22;40800;52.704;6.398;2023-11-19T04:13:01;16.00;99.90
54898;DHT22;40800;52.704;6.398;2023-11-19T04:15:27;15.70;99.90
54898;DHT22;40800;52.704;6.398;2023-11-19T04:17:52;15.70;99.90
54898;DHT22;40800;52.704;6.398;2023-11-19T04:20:18;16.20;99.90
54898;DHT22;40800;52.704;6.398;2023-11-19T04:22:43;15.70;99.90
54898;DHT22;40800;52.704;6.398;2023-11-19T04:25:09;15.60;99.90
54898;DHT22;40800;52.704;6.398;2023-11-19T04:27:34;16.10;99.90
54898;DHT22;40800;52.704;6.398;2023-11-19T04:30:00;15.50;99.90
54898;DHT22;40800;52.704;6.398;2023-11-19T04:32:27;16.00;99.90
54898;DHT22;40800;52.704;6.398;2023-11-19T04:34:52;15.60;99.90
54898;DHT22;40800;52.704;6.398;2023-11-19T04:37:18;15.40;99.90
54898;DHT22;40800;52.704;6.398;2023-11-19T04:39:46;15.90;99.90
54898;DHT22;40800;52.704;6.398;2023-11-19T04:42:11;15.80;99.90
54898;DHT22;40800;52.704;6.398;2023-11-19T04:44:37;15.40;99.90
54898;DHT22;40800;52.704;6.398;2023-11-19T04:47:03;15.40;99.90
54898;DHT22;40800;52.704;6.398;2023-11-19T04:49:28;15.80;99.90
54898;DHT22;40800;52.704;6.398;2023-11-19T04:51:55;15.40;99.90
54898;DHT22;40800;52.704;6.398;2023-11-19T04:54:21;15.50;99.90
54898;DHT22;40800;52.704;6.398;2023-11-19T04:56:47;15.70;99.90
54898;DHT22;40800;52.704;6.398;2023-11-19T04:59:12;15.60;99.90
54898;DHT22;40800;52.704;6.398;2023-11-19T05:01:38;15.60;99.90
54898;DHT22;40800;52.704;6.398;2023-11-19T05:04:03;15.50;99.90
54898;DHT22;40800;52.704;6.398;2023-11-19T05:06:29;15.50;99.90
54898;DHT22;40800;52.704;6.398;2023-11-19T05:08:55;15.40;99.90
54898;DHT22;40800;52.704;6.398;2023-11-19T05:11:21;15.50;99.90
54898;DHT22;40800;52.704;6.398;2023-11-19T05:13:46;15.80;99.90
54898;DHT22;40800;52.704;6.398;2023-11-19T05:16:12;15.40;99.90
54898;DHT22;40800;52.704;6.398;2023-11-19T05:18:40;15.40;99.90
54898;DHT22;40800;52.704;6.398;2023-11-19T05:21:06;15.70;99.90
54898;DHT22;40800;52.704;6.398;2023-11-19T05:23:34;15.40;99.90
54898;DHT22;40800;52.704;6.398;2023-11-19T05:26:00;15.90;99.90
54898;DHT22;40800;52.704;6.398;2023-11-19T05:28:26;15.50;99.90
54898;DHT22;40800;52.704;6.398;2023-11-19T05:30:51;15.50;99.90
54898;DHT22;40800;52.704;6.398;2023-11-19T05:33:17;15.40;99.90
54898;DHT22;40800;52.704;6.398;2023-11-19T05:35:42;15.50;99.90
54898;DHT22;40800;52.704;6.398;2023-11-19T05:38:08;15.40;99.90
54898;DHT22;40800;52.704;6.398;2023-11-19T05:40:34;15.80;99.90
54898;DHT22;40800;52.704;6.398;2023-11-19T05:43:00;15.50;99.90
54898;DHT22;40800;52.704;6.398;2023-11-19T05:45:25;15.40;99.90
54898;DHT22;40800;52.704;6.398;2023-11-19T05:47:51;15.60;99.90
54898;DHT22;40800;52.704;6.398;2023-11-19T05:50:17;15.70;99.90
54898;DHT22;40800;52.704;6.398;2023-11-19T05:52:43;15.60;99.90
54898;DHT22;40800;52.704;6.398;2023-11-19T05:55:09;15.70;99.90
54898;DHT22;40800;52.704;6.398;2023-11-19T05:57:38;15.60;99.90
54898;DHT22;40800;52.704;6.398;2023-11-19T06:00:05;15.50;99.90
54898;DHT22;40800;52.704;6.398;2023-11-19T06:02:34;15.60;99.90
54898;DHT22;40800;52.704;6.398;2023-11-19T06:05:00;15.40;99.90
54898;DHT22;40800;52.704;6.398;2023-11-19T06:07:26;15.30;99.90
54898;DHT22;40800;52.704;6.398;2023-11-19T06:09:51;15.30;99.90
54898;DHT22;40800;52.704;6.398;2023-11-19T06:12:17;15.40;99.90
54898;DHT22;40800;52.704;6.398;2023-11-19T06:14:42;15.30;99.90
54898;DHT22;40800;52.704;6.398;2023-11-19T06:17:08;15.20;99.90
54898;DHT22;40800;52.704;6.398;2023-11-19T06:19:36;15.00;99.90
54898;DHT22;40800;52.704;6.398;2023-11-19T06:22:01;15.10;99.90
54898;DHT22;40800;52.704;6.398;2023-11-19T06:24:26;15.20;99.90
54898;DHT22;40800;52.704;6.398;2023-11-19T06:26:52;15.20;99.90
54898;DHT22;40800;52.704;6.398;2023-11-19T06:29:18;15.30;99.90
54898;DHT22;40800;52.704;6.398;2023-11-19T06:31:45;15.40;99.90
54898;DHT22;40800;52.704;6.398;2023-11-19T06:34:10;15.00;99.90
54898;DHT22;40800;52.704;6.398;2023-11-19T06:36:36;15.00;99.90
54898;DHT22;40800;52.704;6.398;2023-11-19T06:39:01;15.30;99.90
54898;DHT22;40800;52.704;6.398;2023-11-19T06:41:27;15.20;99.90
54898;DHT22;40800;52.704;6.398;2023-11-19T06:43:54;15.10;99.90
54898;DHT22;40800;52.704;6.398;2023-11-19T06:46:20;15.00;99.90
54898;DHT22;40800;52.704;6.398;2023-11-19T06:48:45;15.20;99.90
54898;DHT22;40800;52.704;6.398;2023-11-19T06:51:11;15.30;99.90
54898;DHT22;40800;52.704;6.398;2023-11-19T06:53:37;15.30;99.90
54898;DHT22;40800;52.704;6.398;2023-11-19T06:56:02;15.30;99.90
54898;DHT22;40800;52.704;6.398;2023-11-19T06:58:32;15.10;99.90
54898;DHT22;40800;52.704;6.398;2023-11-19T07:00:59;15.10;99.90
54898;DHT22;40800;52.704;6.398;2023-11-19T07:03:25;15.10;99.90
54898;DHT22;40800;52.704;6.398;2023-11-19T07:05:50;15.10;99.90
54898;DHT22;40800;52.704;6.398;2023-11-19T07:08:17;15.10;99.90
54898;DHT22;40800;52.704;6.398;2023-11-19T07:10:42;15.20;99.90
54898;DHT22;40800;52.704;6.398;2023-11-19T07:13:07;15.30;99.90
54898;DHT22;40800;52.704;6.398;2023-11-19T07:15:33;15.10;99.90
54898;DHT22;40800;52.704;6.398;2023-11-19T07:17:58;15.10;99.90
54898;DHT22;40800;52.704;6.398;2023-11-19T07:20:25;15.10;99.90
54898;DHT22;40800;52.704;6.398;2023-11-19T07:22:53;15.20;99.90
54898;DHT22;40800;52.704;6.398;2023-11-19T07:25:20;15.00;99.90
54898;DHT22;40800;52.704;6.398;2023-11-19T07:27:45;15.20;99.90
54898;DHT22;40800;52.704;6.398;2023-11-19T07:30:12;14.90;99.90
54898;DHT22;40800;52.704;6.398;2023-11-19T07:32:38;15.00;99.90
54898;DHT22;40800;52.704;6.398;2023-11-19T07:35:04;15.10;99.90
54898;DHT22;40800;52.704;6.398;2023-11-19T07:37:31;15.10;99.90
54898;DHT22;40800;52.704;6.398;2023-11-19T07:39:56;15.00;99.90
54898;DHT22;40800;52.704;6.398;2023-11-19T07:42:21;14.90;99.90
54898;DHT22;40800;52.704;6.398;2023-11-19T07:44:48;15.00;99.90
54898;DHT22;40800;52.704;6.398;2023-11-19T07:47:13;14.90;99.90
54898;DHT22;40800;52.704;6.398;2023-11-19T07:49:39;15.10;99.90
54898;DHT22;40800;52.704;6.398;2023-11-19T07:52:04;15.00;99.90
54898;DHT22;40800;52.704;6.398;2023-11-19T07:54:30;15.10;99.90
54898;DHT22;40800;52.704;6.398;2023-11-19T07:56:55;15.10;99.90
54898;DHT22;40800;52.704;6.398;2023-11-19T07:59:21;15.10;99.90
54898;DHT22;40800;52.704;6.398;2023-11-19T08:01:47;15.10;99.90
54898;DHT22;40800;52.704;6.398;2023-11-19T08:04:13;15.10;99.90
54898;DHT22;40800;52.704;6.398;2023-11-19T08:06:39;15.10;99.90
54898;DHT22;40800;52.704;6.398;2023-11-19T08:09:04;15.00;99.90
54898;DHT22;40800;52.704;6.398;2023-11-19T08:11:30;15.20;99.90
54898;DHT22;40800;52.704;6.398;2023-11-19T08:13:56;15.20;99.90
54898;DHT22;40800;52.704;6.398;2023-11-19T08:16:21;15.20;99.90
54898;DHT22;40800;52.704;6.398;2023-11-19T08:18:47;15.10;99.90
54898;DHT22;40800;52.704;6.398;2023-11-19T08:21:12;15.00;99.90
54898;DHT22;40800;52.704;6.398;2023-11-19T08:23:38;15.00;99.90
54898;DHT22;40800;52.704;6.398;2023-11-19T08:26:04;14.90;99.90
54898;DHT22;40800;52.704;6.398;2023-11-19T08:28:30;14.70;99.90
54898;DHT22;40800;52.704;6.398;2023-11-19T08:30:56;15.00;99.90
54898;DHT22;40800;52.704;6.398;2023-11-19T08:33:22;14.70;99.90
54898;DHT22;40800;52.704;6.398;2023-11-19T08:35:48;14.80;99.90
54898;DHT22;40800;52.704;6.398;2023-11-19T08:38:14;14.80;99.90
54898;DHT22;40800;52.704;6.398;2023-11-19T08:40:39;15.00;99.90
54898;DHT22;40800;52.704;6.398;2023-11-19T08:43:04;14.70;99.90
54898;DHT22;40800;52.704;6.398;2023-11-19T08:45:30;14.80;99.90
54898;DHT22;40800;52.704;6.398;2023-11-19T08:47:57;14.80;99.90
54898;DHT22;40800;52.704;6.398;2023-11-19T08:50:22;14.80;99.90
54898;DHT22;40800;52.704;6.398;2023-11-19T08:52:49;15.00;99.90
54898;DHT22;40800;52.704;6.398;2023-11-19T08:55:14;15.20;99.90
54898;DHT22;40800;52.704;6.398;2023-11-19T08:57:40;15.10;99.90
54898;DHT22;40800;52.704;6.398;2023-11-19T09:00:05;14.80;99.90
54898;DHT22;40800;52.704;6.398;2023-11-19T09:02:34;15.00;99.90
54898;DHT22;40800;52.704;6.398;2023-11-19T09:05:00;15.00;99.90
54898;DHT22;40800;52.704;6.398;2023-11-19T09:07:27;14.90;99.90
54898;DHT22;40800;52.704;6.398;2023-11-19T09:09:52;14.90;99.90
54898;DHT22;40800;52.704;6.398;2023-11-19T09:12:18;15.00;99.90
54898;DHT22;40800;52.704;6.398;2023-11-19T09:14:43;15.20;99.90
54898;DHT22;40800;52.704;6.398;2023-11-19T09:17:09;15.10;99.90
54898;DHT22;40800;52.704;6.398;2023-11-19T09:19:35;15.00;99.90
54898;DHT22;40800;52.704;6.398;2023-11-19T09:22:01;15.20;99.90
54898;DHT22;40800;52.704;6.398;2023-11-19T09:24:26;15.20;99.90
54898;DHT22;40800;52.704;6.398;2023-11-19T09:26:52;15.50;99.90
54898;DHT22;40800;52.704;6.398;2023-11-19T09:29:17;15.30;99.90
54898;DHT22;40800;52.704;6.398;2023-11-19T09:31:43;15.30;99.90
54898;DHT22;40800;52.704;6.398;2023-11-19T09:34:08;15.40;99.90
54898;DHT22;40800;52.704;6.398;2023-11-19T09:36:34;15.30;99.90
54898;DHT22;40800;52.704;6.398;2023-11-19T09:38:59;15.30;99.90
54898;DHT22;40800;52.704;6.398;2023-11-19T09:41:26;15.40;99.90
54898;DHT22;40800;52.704;6.398;2023-11-19T09:43:53;15.40;99.90
54898;DHT22;40800;52.704;6.398;2023-11-19T09:46:18;15.30;99.90
54898;DHT22;40800;52.704;6.398;2023-11-19T09:48:44;15.30;99.90
54898;DHT22;40800;52.704;6.398;2023-11-19T09:51:10;15.80;99.90
54898;DHT22;40800;52.704;6.398;2023-11-19T09:53:36;15.40;99.90
54898;DHT22;40800;52.704;6.398;2023-11-19T09:56:02;15.30;99.90
54898;DHT22;40800;52.704;6.398;2023-11-19T09:58:34;15.30;99.90
54898;DHT22;40800;52.704;6.398;2023-11-19T10:01:00;15.20;99.90
54898;DHT22;40800;52.704;6.398;2023-11-19T10:03:32;15.10;99.90
54898;DHT22;40800;52.704;6.398;2023-11-19T10:05:58;15.30;99.90
54898;DHT22;40800;52.704;6.398;2023-11-19T10:08:25;15.20;99.90
54898;DHT22;40800;52.704;6.398;2023-11-19T10:10:51;15.20;99.90
54898;DHT22;40800;52.704;6.398;2023-11-19T10:13:17;15.10;99.90
54898;DHT22;40800;52.704;6.398;2023-11-19T10:15:43;15.20;99.90
54898;DHT22;40800;52.704;6.398;2023-11-19T10:18:08;15.10;99.90
54898;DHT22;40800;52.704;6.398;2023-11-19T10:20:40;15.10;99.90
54898;DHT22;40800;52.704;6.398;2023-11-19T10:23:06;15.30;99.90
54898;DHT22;40800;52.704;6.398;2023-11-19T10:25:32;15.20;99.90
54898;DHT22;40800;52.704;6.398;2023-11-19T10:27:57;15.40;99.90
54898;DHT22;40800;52.704;6.398;2023-11-19T10:30:24;15.40;99.90
54898;DHT22;40800;52.704;6.398;2023-11-19T10:33:03;15.40;99.90
54898;DHT22;40800;52.704;6.398;2023-11-19T10:35:28;15.30;99.90
54898;DHT22;40800;52.704;6.398;2023-11-19T10:37:54;15.50;99.90
54898;DHT22;40800;52.704;6.398;2023-11-19T10:40:19;15.40;99.90
54898;DHT22;40800;52.704;6.398;2023-11-19T10:42:45;15.40;99.90
54898;DHT22;40800;52.704;6.398;2023-11-19T10:45:32;15.60;99.90
54898;DHT22;40800;52.704;6.398;2023-11-19T10:47:57;15.60;99.90
54898;DHT22;40800;52.704;6.398;2023-11-19T10:50:22;15.40;99.90
54898;DHT22;40800;52.704;6.398;2023-11-19T10:52:49;15.60;99.90
54898;DHT22;40800;52.704;6.398;2023-11-19T10:55:16;15.60;99.90
54898;DHT22;40800;52.704;6.398;2023-11-19T10:57:44;15.60;99.90
54898;DHT22;40800;52.704;6.398;2023-11-19T11:00:12;15.60;99.90
54898;DHT22;40800;52.704;6.398;2023-11-19T11:02:40;15.60;99.90
54898;DHT22;40800;52.704;6.398;2023-11-19T11:05:06;15.60;99.90
54898;DHT22;40800;52.704;6.398;2023-11-19T11:07:33;15.60;99.90
54898;DHT22;40800;52.704;6.398;2023-11-19T11:09:59;15.50;99.90
54898;DHT22;40800;52.704;6.398;2023-11-19T11:12:25;15.70;99.90
54898;DHT22;40800;52.704;6.398;2023-11-19T11:14:51;15.50;99.90
54898;DHT22;40800;52.704;6.398;2023-11-19T11:17:18;15.60;99.90
54898;DHT22;40800;52.704;6.398;2023-11-19T11:19:45;15.60;99.90
54898;DHT22;40800;52.704;6.398;2023-11-19T11:22:10;15.50;99.90
54898;DHT22;40800;52.704;6.398;2023-11-19T11:29:52;15.30;99.90
54898;DHT22;40800;52.704;6.398;2023-11-19T11:37:47;15.30;99.90
54898;DHT22;40800;52.704;6.398;2023-11-19T11:40:15;15.20;99.90
54898;DHT22;40800;52.704;6.398;2023-11-19T11:42:41;15.10;99.90
54898;DHT22;40800;52.704;6.398;2023-11-19T11:45:08;15.10;99.90
54898;DHT22;40800;52.704;6.398;2023-11-19T11:50:09;15.30;99.90
54898;DHT22;40800;52.704;6.398;2023-11-19T11:55:22;15.30;99.90
54898;DHT22;40800;52.704;6.398;2023-11-19T11:57:48;15.40;99.90
54898;DHT22;40800;52.704;6.398;2023-11-19T12:00:21;15.80;99.90
54898;DHT22;40800;52.704;6.398;2023-11-19T12:02:46;15.80;99.90
54898;DHT22;40800;52.704;6.398;2023-11-19T12:05:14;15.90;99.90
54898;DHT22;40800;52.704;6.398;2023-11-19T12:07:39;15.50;99.90
54898;DHT22;40800;52.704;6.398;2023-11-19T12:10:06;15.80;99.90
54898;DHT22;40800;52.704;6.398;2023-11-19T12:12:33;16.20;99.90
54898;DHT22;40800;52.704;6.398;2023-11-19T12:20:05;15.90;99.90
54898;DHT22;40800;52.704;6.398;2023-11-19T12:22:37;16.30;99.90
54898;DHT22;40800;52.704;6.398;2023-11-19T12:25:04;16.00;99.90
54898;DHT22;40800;52.704;6.398;2023-11-19T12:27:30;16.10;99.90
54898;DHT22;40800;52.704;6.398;2023-11-19T12:29:56;16.20;99.90
54898;DHT22;40800;52.704;6.398;2023-11-19T12:32:22;16.00;99.90
54898;DHT22;40800;52.704;6.398;2023-11-19T12:34:47;16.50;99.90
54898;DHT22;40800;52.704;6.398;2023-11-19T12:37:13;15.80;99.90
54898;DHT22;40800;52.704;6.398;2023-11-19T12:39:39;16.00;99.90
54898;DHT22;40800;52.704;6.398;2023-11-19T12:42:05;15.80;99.90
54898;DHT22;40800;52.704;6.398;2023-11-19T12:44:31;15.80;99.90
54898;DHT22;40800;52.704;6.398;2023-11-19T12:47:03;15.60;99.90
54898;DHT22;40800;52.704;6.398;2023-11-19T12:49:29;15.80;99.90
54898;DHT22;40800;52.704;6.398;2023-11-19T12:51:54;15.50;99.90
54898;DHT22;40800;52.704;6.398;2023-11-19T12:54:20;15.40;99.90
54898;DHT22;40800;52.704;6.398;2023-11-19T12:56:54;15.50;99.90
54898;DHT22;40800;52.704;6.398;2023-11-19T12:59:20;15.70;99.90
54898;DHT22;40800;52.704;6.398;2023-11-19T13:01:55;15.40;99.90
54898;DHT22;40800;52.704;6.398;2023-11-19T13:04:21;15.50;99.90
54898;DHT22;40800;52.704;6.398;2023-11-19T13:06:46;15.60;99.90
54898;DHT22;40800;52.704;6.398;2023-11-19T13:09:24;15.40;99.90
54898;DHT22;40800;52.704;6.398;2023-11-19T13:11:50;15.40;99.90
54898;DHT22;40800;52.704;6.398;2023-11-19T13:14:15;15.40;99.90
54898;DHT22;40800;52.704;6.398;2023-11-19T13:16:41;15.40;99.90
54898;DHT22;40800;52.704;6.398;2023-11-19T13:19:07;15.40;99.90
54898;DHT22;40800;52.704;6.398;2023-11-19T13:21:34;15.40;99.90
54898;DHT22;40800;52.704;6.398;2023-11-19T13:23:59;15.60;99.90
54898;DHT22;40800;52.704;6.398;2023-11-19T13:26:25;15.60;99.90
54898;DHT22;40800;52.704;6.398;2023-11-19T13:28:50;15.50;99.90
54898;DHT22;40800;52.704;6.398;2023-11-19T13:31:16;15.40;99.90
54898;DHT22;40800;52.704;6.398;2023-11-19T13:33:42;15.50;99.90
54898;DHT22;40800;52.704;6.398;2023-11-19T13:36:08;15.20;99.90
54898;DHT22;40800;52.704;6.398;2023-11-19T13:38:34;15.30;99.90
54898;DHT22;40800;52.704;6.398;2023-11-19T13:41:03;15.10;99.90
54898;DHT22;40800;52.704;6.398;2023-11-19T13:43:32;15.30;99.90
54898;DHT22;40800;52.704;6.398;2023-11-19T13:45:57;15.20;99.90
54898;DHT22;40800;52.704;6.398;2023-11-19T13:48:23;15.30;99.90
54898;DHT22;40800;52.704;6.398;2023-11-19T13:50:49;15.20;99.90
54898;DHT22;40800;52.704;6.398;2023-11-19T13:53:15;15.10;99.90
54898;DHT22;40800;52.704;6.398;2023-11-19T13:55:41;15.00;99.90
54898;DHT22;40800;52.704;6.398;2023-11-19T13:58:06;14.90;99.90
54898;DHT22;40800;52.704;6.398;2023-11-19T14:00:32;14.90;99.90
54898;DHT22;40800;52.704;6.398;2023-11-19T14:02:57;14.90;99.90
54898;DHT22;40800;52.704;6.398;2023-11-19T14:05:23;14.90;99.90
54898;DHT22;40800;52.704;6.398;2023-11-19T14:07:49;14.90;99.90
54898;DHT22;40800;52.704;6.398;2023-11-19T14:10:15;14.90;99.90
54898;DHT22;40800;52.704;6.398;2023-11-19T14:12:41;14.90;99.90
54898;DHT22;40800;52.704;6.398;2023-11-19T14:15:07;15.00;99.90
54898;DHT22;40800;52.704;6.398;2023-11-19T14:17:34;14.90;99.90
54898;DHT22;40800;52.704;6.398;2023-11-19T14:20:00;15.10;99.90
54898;DHT22;40800;52.704;6.398;2023-11-19T14:22:25;15.20;99.90
54898;DHT22;40800;52.704;6.398;2023-11-19T14:24:51;14.90;99.90
54898;DHT22;40800;52.704;6.398;2023-11-19T14:27:16;15.20;99.90
54898;DHT22;40800;52.704;6.398;2023-11-19T14:29:45;15.20;99.90
54898;DHT22;40800;52.704;6.398;2023-11-19T14:32:10;15.00;99.90
54898;DHT22;40800;52.704;6.398;2023-11-19T14:34:36;15.00;99.90
54898;DHT22;40800;52.704;6.398;2023-11-19T14:37:01;15.00;99.90
54898;DHT22;40800;52.704;6.398;2023-11-19T14:39:28;15.20;99.90
54898;DHT22;40800;52.704;6.398;2023-11-19T14:41:56;15.20;99.90
54898;DHT22;40800;52.704;6.398;2023-11-19T14:44:26;15.10;99.90
54898;DHT22;40800;52.704;6.398;2023-11-19T14:46:51;15.00;99.90
54898;DHT22;40800;52.704;6.398;2023-11-19T14:49:17;15.10;99.90
54898;DHT22;40800;52.704;6.398;2023-11-19T14:51:42;14.70;99.90
54898;DHT22;40800;52.704;6.398;2023-11-19T14:54:08;15.10;99.90
54898;DHT22;40800;52.704;6.398;2023-11-19T14:56:33;14.80;99.90
54898;DHT22;40800;52.704;6.398;2023-11-19T14:58:59;14.90;99.90
54898;DHT22;40800;52.704;6.398;2023-11-19T15:01:25;14.90;99.90
54898;DHT22;40800;52.704;6.398;2023-11-19T15:03:50;15.00;99.90
54898;DHT22;40800;52.704;6.398;2023-11-19T15:06:16;14.90;99.90
54898;DHT22;40800;52.704;6.398;2023-11-19T15:08:42;14.60;99.90
54898;DHT22;40800;52.704;6.398;2023-11-19T15:11:07;15.20;99.90
54898;DHT22;40800;52.704;6.398;2023-11-19T15:13:34;15.00;99.90
54898;DHT22;40800;52.704;6.398;2023-11-19T15:16:02;14.70;99.90
54898;DHT22;40800;52.704;6.398;2023-11-19T15:18:27;15.20;99.90
54898;DHT22;40800;52.704;6.398;2023-11-19T15:20:53;14.60;99.90
54898;DHT22;40800;52.704;6.398;2023-11-19T15:23:18;15.10;99.90
54898;DHT22;40800;52.704;6.398;2023-11-19T15:25:44;15.10;99.90
54898;DHT22;40800;52.704;6.398;2023-11-19T15:28:10;15.20;99.90
54898;DHT22;40800;52.704;6.398;2023-11-19T15:30:36;14.70;99.90
54898;DHT22;40800;52.704;6.398;2023-11-19T15:33:01;15.20;99.90
54898;DHT22;40800;52.704;6.398;2023-11-19T15:35:27;14.70;99.90
54898;DHT22;40800;52.704;6.398;2023-11-19T15:37:52;15.20;99.90
54898;DHT22;40800;52.704;6.398;2023-11-19T15:40:18;15.70;99.90
54898;DHT22;40800;52.704;6.398;2023-11-19T15:42:44;14.60;99.90
54898;DHT22;40800;52.704;6.398;2023-11-19T15:45:11;15.20;99.90